Happy Valentine's Day! 

Flight Track Log - Related Links

Times and Time Zones

All times are in EST time to prevent confusion due to time zone crossing. See the AAY860 flight status page for this flight to view local times or setup timezone preferences in your user account.


Time Position Orientation Groundspeed Altitude Reporting Facility
EST Latitude Longitude Course Direction KTS MPH feet Rate Location/Type
Mon 07:29:56 AM 27.9000 -82.6833 168° South 169 194 1,000  Level Tampa TRACON
Mon 07:30:57 AM 27.8333 -82.6667 168° South 219 252 2,100 1,884 Climbing Tampa TRACON
Mon 07:31:57 AM 27.8000 -82.7000 221° Southwest 211 243 4,800 2,727 Climbing Tampa TRACON
Mon 07:33:53 AM 27.9350 -82.7469 343° North 302 348 10,100 2,182 Climbing Jacksonville Center
Mon 07:34:53 AM 28.0267 -82.7444 North 309 356 11,200 1,500 Climbing Jacksonville Center
Mon 07:35:53 AM 28.1414 -82.7489 358° North 340 391 13,100 2,250 Climbing Jacksonville Center
Mon 07:36:53 AM 28.2606 -82.7442 North 388 447 15,700 2,350 Climbing Jacksonville Center
Mon 07:37:53 AM 28.3772 -82.7417 North 404 465 17,800 2,000 Climbing Jacksonville Center
Mon 07:38:53 AM 28.5006 -82.7392 North 421 484 19,700 1,750 Climbing Jacksonville Center
Mon 07:39:53 AM 28.6256 -82.7364 North 434 499 21,300 1,600 Climbing Jacksonville Center
Mon 07:40:53 AM 28.7425 -82.7317 North 447 514 22,900 1,900 Climbing Jacksonville Center
Mon 07:41:53 AM 28.8739 -82.7289 North 458 527 25,100 2,400 Climbing Jacksonville Center
Mon 07:42:53 AM 29.0033 -82.7264 North 463 533 27,700 2,150 Climbing Jacksonville Center
Mon 07:43:53 AM 29.1225 -82.7214 North 442 509 29,400 1,500 Climbing Jacksonville Center
Mon 07:44:53 AM 29.2414 -82.7189 North 436 502 30,700 1,250 Climbing Jacksonville Center
Mon 07:45:53 AM 29.3644 -82.7139 North 436 502 31,900 1,100 Climbing Jacksonville Center
Mon 07:46:53 AM 29.4814 -82.7111 North 431 496 32,900 550 Climbing Jacksonville Center
Mon 07:47:53 AM 29.6044 -82.7111 360° North 431 496 33,000 50 Climbing Jacksonville Center
Mon 07:48:53 AM 29.7297 -82.7108 360° North 431 496 33,000  Level Jacksonville Center
Mon 07:49:53 AM 29.8508 -82.7033 North 436 502 33,000  Level Jacksonville Center
Mon 07:50:53 AM 29.9742 -82.7008 North 441 507 33,000  Level Jacksonville Center
Mon 07:51:53 AM 30.1078 -82.6956 North 436 502 33,000  Level Jacksonville Center
Mon 07:52:53 AM 30.2289 -82.6931 North 436 502 33,000 -50 Level Jacksonville Center
Mon 07:53:53 AM 30.3500 -82.6881 North 436 502 32,900  Descending Jacksonville Center
Mon 07:54:53 AM 30.4731 -82.6878 360° North 436 502 33,000  Climbing Jacksonville Center
Mon 07:55:53 AM 30.5836 -82.6753 North 441 507 32,900  Descending Jacksonville Center
Mon 07:56:53 AM 30.7089 -82.6533 North 441 507 33,000 50 Climbing Jacksonville Center
Mon 07:57:53 AM 30.8300 -82.6314 North 446 513 33,000  Level Jacksonville Center
Mon 07:58:53 AM 30.9511 -82.6456 354° North 436 502 33,000  Level Jacksonville Center
Mon 07:59:53 AM 31.0681 -82.6744 348° North 429 494 33,000  Level Jacksonville Center
Mon 08:00:53 AM 31.1831 -82.6983 350° North 429 494 33,000  Level Jacksonville Center
Mon 08:01:53 AM 31.3019 -82.7272 348° North 429 494 33,000  Level Jacksonville Center
Mon 08:04:17 AM 31.5797 -82.7956 348° North 442 509 33,000  Level Atlanta Center
Mon 08:05:17 AM 31.6967 -82.8233 349° North 430 495 33,000  Level Atlanta Center
Mon 08:06:17 AM 31.8139 -82.8511 349° North 430 495 33,000  Level Atlanta Center
Mon 08:07:17 AM 31.9311 -82.8814 348° North 430 495 33,000  Level Atlanta Center
Mon 08:08:17 AM 32.0483 -82.9069 350° North 430 495 33,000  Level Atlanta Center
Mon 08:09:17 AM 32.1653 -82.9397 347° North 430 495 33,000  Level Atlanta Center
Mon 08:10:17 AM 32.2806 -82.9678 348° North 430 495 33,000  Level Atlanta Center
Mon 08:11:17 AM 32.3975 -82.9958 349° North 424 488 33,000  Level Atlanta Center
Mon 08:12:17 AM 32.5125 -83.0239 348° North 424 488 33,000 400 Level Atlanta Center
Mon 08:13:17 AM 32.6297 -83.0547 348° North 424 488 33,800 500 Climbing Atlanta Center
Mon 08:14:17 AM 32.7469 -83.0831 349° North 424 488 34,000 100 Climbing Atlanta Center
Mon 08:15:17 AM 32.8619 -83.1114 348° North 424 488 34,000  Level Atlanta Center
Mon 08:16:17 AM 32.9789 -83.1400 348° North 424 488 34,000  Level Atlanta Center
Mon 08:17:17 AM 33.1067 -83.1733 348° North 429 494 34,000  Level Atlanta Center
Mon 08:18:17 AM 33.2236 -83.2019 348° North 429 494 34,000  Level Atlanta Center
Mon 08:19:17 AM 33.3386 -83.2308 348° North 435 501 34,000  Level Atlanta Center
Mon 08:20:17 AM 33.4558 -83.2619 348° North 429 494 34,000  Level Atlanta Center
Mon 08:21:17 AM 33.5750 -83.2908 349° North 429 494 34,000  Level Atlanta Center
Mon 08:22:17 AM 33.6919 -83.3197 348° North 429 494 34,000  Level Atlanta Center
Mon 08:23:17 AM 33.8089 -83.3486 348° North 429 494 34,000  Level Atlanta Center
Mon 08:24:17 AM 33.9261 -83.3778 348° North 429 494 34,000  Level Atlanta Center
Mon 08:25:17 AM 34.0453 -83.4094 348° North 429 494 34,000  Level Atlanta Center
Mon 08:26:17 AM 34.1664 -83.4414 348° North 437 503 34,000  Level Atlanta Center
Mon 08:27:17 AM 34.2856 -83.4706 349° North 432 497 34,000  Level Atlanta Center
Mon 08:28:17 AM 34.3942 -83.4975 348° North 432 497 34,000  Level Atlanta Center
Mon 08:29:17 AM 34.5111 -83.5244 349° North 432 497 34,000  Level Atlanta Center
Mon 08:30:17 AM 34.6303 -83.5567 347° North 437 503 34,000  Level Atlanta Center
Mon 08:31:17 AM 34.7514 -83.5889 348° North 432 497 34,000  Level Atlanta Center
Mon 08:32:17 AM 34.8725 -83.6186 349° North 432 497 34,000  Level Atlanta Center
Mon 08:33:17 AM 34.9875 -83.6558 345° North 432 497 34,000  Level Atlanta Center
Mon 08:34:18 AM 35.1106 -83.6883 348° North 432 497 34,000  Level Atlanta Center
Mon 08:35:17 AM 35.2275 -83.7183 348° North 432 497 34,000  Level Atlanta Center
Mon 08:36:17 AM 35.3486 -83.7511 348° North 432 497 34,000  Level Atlanta Center
Mon 08:37:17 AM 35.4697 -83.7811 349° North 432 497 34,000 -200 Level Atlanta Center
Mon 08:38:17 AM 35.5867 -83.8114 348° North 432 497 33,600 -850 Descending Atlanta Center
Mon 08:39:17 AM 35.7078 -83.8444 348° North 432 497 32,300 -1,500 Descending Atlanta Center
Mon 08:40:17 AM 35.8453 -83.8800 348° North 441 507 30,600 -1,550 Descending Atlanta Center
Mon 08:41:17 AM 35.9644 -83.9106 348° North 446 513 29,200 -1,447 Descending Atlanta Center
Mon 08:43:07 AM 36.1872 -83.9717 348° North 445 512 26,500 -1,430 Descending Indianapolis Center
Mon 08:44:09 AM 36.3061 -84.0042 348° North 440 506 25,100 -1,220 Descending Indianapolis Center
Mon 08:45:10 AM 36.4264 -84.0378 347° North 444 511 24,000 -537 Descending Indianapolis Center
Mon 08:46:12 AM 36.5364 -84.0681 348° North 436 502 24,000 -341 Level Indianapolis Center
Mon 08:47:13 AM 36.6756 -84.1069 347° North 435 501 23,300 -1,230 Descending Indianapolis Center
Mon 08:48:14 AM 36.7981 -84.1403 348° North 444 511 21,500 -1,756 Descending Indianapolis Center
Mon 08:49:16 AM 36.9144 -84.1728 347° North 431 496 19,700 -1,756 Descending Indianapolis Center
Mon 08:50:17 AM 37.0275 -84.2047 347° North 418 481 17,900 -1,707 Descending Indianapolis Center
Mon 08:51:19 AM 37.1358 -84.2353 347° North 403 464 16,200 -1,707 Descending Indianapolis Center
Mon 08:52:20 AM 37.2447 -84.2661 347° North 400 460 14,400 -1,820 Descending Indianapolis Center
Mon 08:53:21 AM 37.3508 -84.2958 347° North 393 452 12,500 -1,707 Descending Indianapolis Center
Mon 08:54:23 AM 37.4542 -84.3258 347° North 383 441 10,900 -1,073 Descending Indianapolis Center
Mon 08:55:24 AM 37.5503 -84.3583 345° North 365 420 10,300 -585 Descending Indianapolis Center
Mon 08:56:26 AM 37.6278 -84.4169 329° Northwest 293 337 9,700 -1,024 Descending Indianapolis Center
Mon 08:57:27 AM 37.6900 -84.4589 332° Northwest 261 300 8,200 -1,475 Descending Indianapolis Center
Mon 08:58:28 AM 37.7503 -84.4994 332° Northwest 248 285 6,700 -1,463 Descending Indianapolis Center
Mon 08:59:30 AM 37.8092 -84.5394 332° Northwest 242 278 5,200 -1,659 Descending Indianapolis Center
Mon 09:00:31 AM 37.8608 -84.5889 323° Northwest 237 273 3,300 -1,122 Descending Indianapolis Center
Mon 09:01:33 AM 37.9131 -84.6281 329° Northwest 225 259 2,900 -439 Descending Indianapolis Center
Mon 09:02:34 AM 37.9636 -84.6467 344° North 202 232 2,400 -246 Descending Indianapolis Center
Mon 09:03:35 AM 38.0075 -84.6633 343° North 198 228 2,400  Level Indianapolis Center
Mon 09:05:00 AM 38.0368 -84.6086 302° West  Level Estimated
Mon 09:12:00 AM 38.0368 -84.6086 302° West  Level Estimated

Login

Don't have an account? Register now (free) for customized features, flight alerts, and more!